Time;durP1;ratioP1;P1;durP2;ratioP2;P2;SDS_P1;SDS_P2;PMS_P1;PMS_P2;Temp;Humidity;BMP_temperature;BMP_pressure;BME280_temperature;BME280_humidity;BME280_pressure;Samples;Min_cycle;Max_cycle;Signal;HPM_P1;HPM_P2
2023/01/13 00:00:34;;;;;;;36.47;5.50;;;8.80;99.90;;;;;;5027928;28;20426;-81
2023/01/13 00:03:00;;;;;;;39.00;5.90;;;10.20;99.90;;;;;;5027111;28;20482;-81
2023/01/13 00:05:34;;;;;;;30.75;5.05;;;8.70;99.90;;;;;;5015311;28;20112;-80
2023/01/13 00:08:00;;;;;;;32.70;5.93;;;8.80;99.90;;;;;;5019692;28;20045;-81
2023/01/13 00:10:25;;;;;;;28.20;7.05;;;8.60;99.90;;;;;;5016565;28;20042;-80
2023/01/13 00:12:52;;;;;;;31.98;6.68;;;10.30;99.90;;;;;;5021273;28;20094;-81
2023/01/13 00:15:18;;;;;;;32.33;6.45;;;8.50;99.90;;;;;;5028998;28;20044;-80
2023/01/13 00:17:43;;;;;;;33.10;5.57;;;8.60;99.90;;;;;;5023789;28;20034;-81
2023/01/13 00:20:09;;;;;;;34.90;6.53;;;10.20;99.90;;;;;;5003185;28;20213;-80
2023/01/13 00:22:35;;;;;;;42.13;6.13;;;8.40;99.90;;;;;;5015655;28;20092;-80
2023/01/13 00:25:05;;;;;;;29.17;5.57;;;8.40;99.90;;;;;;5002112;28;20869;-80
2023/01/13 00:27:31;;;;;;;38.22;6.25;;;8.40;99.90;;;;;;5000139;28;20048;-80
2023/01/13 00:29:57;;;;;;;31.83;6.03;;;8.40;99.90;;;;;;5019797;28;20038;-81
2023/01/13 00:32:23;;;;;;;47.90;6.68;;;8.30;99.90;;;;;;5027966;28;20041;-81
2023/01/13 00:34:48;;;;;;;37.58;7.63;;;9.90;99.90;;;;;;5004029;28;20076;-80
2023/01/13 00:37:14;;;;;;;22.08;5.38;;;8.40;99.90;;;;;;5020320;28;20453;-80
2023/01/13 00:39:40;;;;;;;48.00;9.02;;;8.40;99.90;;;;;;5028515;28;20095;-81
2023/01/13 00:44:50;;;;;;;;;;;8.90;99.90;;;;;;5016680;28;20128;-80
2023/01/13 00:47:17;;;;;;;34.92;6.97;;;8.20;99.90;;;;;;5025769;28;20020;-80
2023/01/13 00:49:43;;;;;;;40.85;6.28;;;8.20;99.90;;;;;;5019786;28;20049;-80
2023/01/13 00:52:10;;;;;;;30.95;6.30;;;8.10;99.90;;;;;;5046855;28;20107;-80
2023/01/13 00:54:36;;;;;;;36.00;6.82;;;8.20;99.90;;;;;;5038411;28;20041;-80
2023/01/13 00:57:03;;;;;;;33.80;6.25;;;8.10;99.90;;;;;;5038422;28;20044;-81
2023/01/13 00:59:28;;;;;;;37.38;6.60;;;8.20;99.90;;;;;;5042224;28;20056;-80
2023/01/13 01:01:54;;;;;;;33.15;5.93;;;8.70;99.90;;;;;;5045789;28;20037;-80
2023/01/13 01:04:19;;;;;;;35.22;7.50;;;8.20;99.90;;;;;;5038786;28;20507;-80
2023/01/13 01:06:45;;;;;;;34.30;5.95;;;9.70;99.90;;;;;;5038000;28;20155;-80
2023/01/13 01:09:15;;;;;;;31.58;6.07;;;8.90;99.90;;;;;;5044656;28;20040;-80
2023/01/13 01:11:42;;;;;;;33.28;6.45;;;8.00;99.90;;;;;;5041764;28;20041;-81
2023/01/13 01:14:11;;;;;;;39.40;7.93;;;8.00;99.90;;;;;;5042733;28;20067;-80
2023/01/13 01:16:38;;;;;;;39.67;6.80;;;8.50;99.90;;;;;;5045664;28;20048;-81
2023/01/13 01:19:04;;;;;;;37.05;8.43;;;7.90;99.90;;;;;;5044849;28;20087;-81
2023/01/13 01:21:31;;;;;;;28.63;5.47;;;8.90;99.90;;;;;;5045416;28;20067;-81
2023/01/13 01:24:01;;;;;;;41.30;7.40;;;7.90;99.90;;;;;;5041956;28;20499;-81
2023/01/13 01:26:28;;;;;;;43.35;6.82;;;7.90;99.90;;;;;;5046395;28;20371;-81
2023/01/13 01:28:54;;;;;;;37.65;7.45;;;8.10;99.90;;;;;;5042499;28;20491;-80
2023/01/13 01:31:26;;;;;;;42.45;8.15;;;8.10;99.90;;;;;;5021677;28;20041;-80
2023/01/13 01:33:54;;;;;;;42.97;8.93;;;7.80;99.90;;;;;;5044731;28;20060;-80
2023/01/13 01:36:22;;;;;;;42.42;6.65;;;7.80;99.90;;;;;;5038033;28;20045;-80
2023/01/13 01:38:48;;;;;;;43.30;6.82;;;8.20;99.90;;;;;;5053056;28;20045;-80
2023/01/13 01:41:17;;;;;;;33.83;6.63;;;8.10;99.90;;;;;;5036224;28;20497;-81
2023/01/13 01:44:26;;;;;;;31.65;6.82;;;7.90;99.90;;;;;;5035121;28;20083;-80
2023/01/13 01:46:51;;;;;;;47.42;6.05;;;8.00;99.90;;;;;;5035194;28;20139;-80
2023/01/13 01:49:25;;;;;;;36.03;6.32;;;9.30;99.90;;;;;;5037183;28;20554;-80
2023/01/13 01:52:13;;;;;;;43.08;7.03;;;7.90;99.90;;;;;;5050553;28;20033;-80
2023/01/13 01:54:48;;;;;;;41.97;6.82;;;7.90;99.90;;;;;;5030659;28;20049;-80
2023/01/13 01:57:25;;;;;;;42.05;7.40;;;7.90;99.90;;;;;;5050977;28;20511;-80
2023/01/13 01:59:51;;;;;;;29.23;7.43;;;7.90;99.90;;;;;;5022188;28;20045;-80
2023/01/13 02:02:17;;;;;;;41.22;6.60;;;8.00;99.90;;;;;;5030042;28;20037;-80
2023/01/13 02:04:49;;;;;;;44.88;6.90;;;7.80;99.90;;;;;;5040928;28;20045;-80
2023/01/13 02:07:28;;;;;;;41.28;6.10;;;8.00;99.90;;;;;;5045957;28;20037;-80
2023/01/13 02:09:56;;;;;;;35.00;6.72;;;7.80;99.90;;;;;;5038770;28;20071;-80
2023/01/13 02:12:28;;;;;;;43.72;7.63;;;7.80;99.90;;;;;;5049827;28;20073;-81
2023/01/13 02:14:57;;;;;;;35.63;6.95;;;9.30;99.90;;;;;;5044989;28;20045;-80
2023/01/13 02:17:35;;;;;;;40.75;7.40;;;7.80;99.90;;;;;;5048529;28;20041;-81
2023/01/13 02:20:19;;;;;;;31.83;6.45;;;7.80;99.90;;;;;;5045742;28;20072;-80
2023/01/13 02:23:00;;;;;;;40.15;7.40;;;7.90;99.90;;;;;;5045649;28;20049;-80
2023/01/13 02:25:31;;;;;;;34.72;6.72;;;7.90;99.90;;;;;;5043104;28;20049;-81
2023/01/13 02:28:34;;;;;;;33.72;6.65;;;8.40;99.90;;;;;;5038799;28;20044;-81
2023/01/13 02:34:08;;;;;;;37.20;6.72;;;7.90;99.90;;;;;;5041094;28;20049;-81
2023/01/13 02:36:52;;;;;;;38.00;6.60;;;7.80;99.90;;;;;;5044823;28;20059;-81
2023/01/13 02:39:31;;;;;;;34.47;5.73;;;7.80;99.90;;;;;;5043859;28;20037;-81
2023/01/13 02:45:34;;;;;;;41.13;7.00;;;7.90;99.90;;;;;;5042942;28;20044;-80
2023/01/13 02:48:02;;;;;;;42.88;6.00;;;7.90;99.90;;;;;;5041739;28;20037;-80
2023/01/13 02:50:40;;;;;;;40.95;6.30;;;7.80;99.90;;;;;;5049902;28;20047;-80
2023/01/13 02:53:33;;;;;;;40.05;7.35;;;8.00;99.90;;;;;;5029348;28;20119;-81
2023/01/13 02:56:02;;;;;;;32.58;5.78;;;7.80;99.90;;;;;;5035086;28;20675;-81
2023/01/13 02:58:30;;;;;;;42.75;6.47;;;8.30;99.90;;;;;;5040005;28;20575;-80
2023/01/13 03:00:56;;;;;;;41.95;6.95;;;7.90;99.90;;;;;;5041529;28;20036;-80
2023/01/13 03:03:22;;;;;;;36.83;6.63;;;9.20;99.90;;;;;;5063828;28;20063;-80
2023/01/13 03:05:52;;;;;;;36.67;6.28;;;7.80;99.90;;;;;;5066173;28;20665;-80
2023/01/13 03:08:30;;;;;;;33.50;5.75;;;7.90;99.90;;;;;;5049861;28;20053;-81
2023/01/13 03:11:07;;;;;;;35.85;6.43;;;7.90;99.90;;;;;;5043085;28;20048;-80
2023/01/13 03:13:46;;;;;;;36.60;6.10;;;7.90;99.90;;;;;;5068453;28;20103;-81
2023/01/13 03:16:37;;;;;;;29.45;6.07;;;7.80;99.90;;;;;;5049572;28;20045;-81
2023/01/13 03:19:24;;;;;;;40.90;5.40;;;7.90;99.90;;;;;;5026424;28;20067;-81
2023/01/13 03:21:55;;;;;;;33.70;5.38;;;8.60;99.90;;;;;;5051735;28;20729;-80
2023/01/13 03:24:27;;;;;;;32.83;6.32;;;7.90;99.90;;;;;;5047601;28;20044;-81
2023/01/13 03:27:01;;;;;;;33.83;6.22;;;7.90;99.90;;;;;;5049703;28;20407;-80
2023/01/13 03:29:28;;;;;;;31.08;6.55;;;7.90;99.90;;;;;;5048213;28;20091;-81
2023/01/13 03:32:03;;;;;;;36.75;5.85;;;8.60;99.90;;;;;;5067785;28;20045;-80
2023/01/13 03:34:38;;;;;;;32.10;5.47;;;8.00;99.90;;;;;;5051264;28;20395;-81
2023/01/13 03:37:07;;;;;;;34.45;6.22;;;8.00;99.90;;;;;;5043721;28;20357;-80
2023/01/13 03:39:38;;;;;;;38.25;6.13;;;7.90;99.90;;;;;;5067250;28;20059;-80
2023/01/13 03:42:09;;;;;;;29.80;4.30;;;9.00;99.90;;;;;;5050540;28;20044;-81
2023/01/13 03:44:45;;;;;;;28.70;5.47;;;8.00;99.90;;;;;;5034145;28;20037;-80
2023/01/13 03:47:42;;;;;;;34.25;5.35;;;8.00;99.90;;;;;;5043102;28;20415;-80
2023/01/13 03:50:17;;;;;;;29.27;5.20;;;8.00;99.90;;;;;;5060157;28;20131;-81
2023/01/13 03:52:48;;;;;;;29.08;5.32;;;8.00;99.90;;;;;;5066570;28;20115;-81
2023/01/13 03:55:19;;;;;;;31.83;5.65;;;8.00;99.90;;;;;;5034216;28;20099;-81
2023/01/13 03:57:53;;;;;;;34.53;5.47;;;8.00;99.90;;;;;;5050971;28;20041;-80
2023/01/13 04:00:24;;;;;;;36.20;6.28;;;7.90;99.90;;;;;;5047100;28;20051;-81
2023/01/13 04:03:16;;;;;;;33.65;6.28;;;8.00;99.90;;;;;;5063616;28;20755;-81
2023/01/13 04:05:44;;;;;;;38.83;5.60;;;7.90;99.90;;;;;;5047172;28;20064;-81
2023/01/13 04:08:22;;;;;;;37.05;5.22;;;7.90;99.90;;;;;;5064213;28;20085;-81
2023/01/13 04:11:03;;;;;;;32.95;6.25;;;7.90;99.90;;;;;;5031356;28;20044;-80
2023/01/13 04:13:32;;;;;;;39.97;5.57;;;7.80;99.90;;;;;;5047642;28;20055;-81
2023/01/13 04:15:59;;;;;;;37.22;5.90;;;7.90;99.90;;;;;;5061528;28;20048;-81
2023/01/13 04:18:29;;;;;;;30.67;5.13;;;9.50;99.90;;;;;;5049494;28;20404;-81
2023/01/13 04:21:00;;;;;;;32.03;6.10;;;7.90;99.90;;;;;;5045049;28;20044;-81
2023/01/13 04:23:26;;;;;;;34.30;5.47;;;9.00;99.90;;;;;;5062570;28;20098;-81
2023/01/13 04:25:53;;;;;;;31.13;6.07;;;7.80;99.90;;;;;;5052383;28;20082;-81
2023/01/13 04:28:19;;;;;;;45.47;6.93;;;7.80;99.90;;;;;;5065736;28;20055;-81
2023/01/13 04:30:45;;;;;;;31.92;5.75;;;7.70;99.90;;;;;;5046380;28;20154;-80
2023/01/13 04:33:12;;;;;;;33.08;5.90;;;7.80;99.90;;;;;;5030230;28;20131;-81
2023/01/13 04:35:38;;;;;;;36.28;7.20;;;7.80;99.90;;;;;;5058599;28;20054;-81
2023/01/13 04:38:06;;;;;;;32.55;5.53;;;7.90;99.90;;;;;;5058457;28;20052;-81
2023/01/13 04:40:33;;;;;;;34.42;4.80;;;7.90;99.90;;;;;;5039705;28;20373;-81
2023/01/13 04:42:58;;;;;;;29.65;5.82;;;7.90;99.90;;;;;;5026705;28;20106;-81
2023/01/13 04:45:24;;;;;;;32.80;5.50;;;7.90;99.90;;;;;;5055988;28;20048;-81
2023/01/13 04:47:50;;;;;;;33.20;5.88;;;7.90;99.90;;;;;;5039213;28;20033;-81
2023/01/13 04:50:19;;;;;;;27.30;6.40;;;9.10;99.90;;;;;;5038534;28;20120;-81
2023/01/13 04:52:46;;;;;;;32.88;5.40;;;8.00;99.90;;;;;;5043171;28;20044;-81
2023/01/13 04:55:12;;;;;;;41.80;6.22;;;8.00;99.90;;;;;;5057396;28;20045;-81
2023/01/13 04:57:37;;;;;;;33.13;5.45;;;8.00;99.90;;;;;;5041765;28;20377;-81
2023/01/13 05:00:05;;;;;;;26.60;3.35;;;8.00;99.90;;;;;;5059132;28;20711;-81
2023/01/13 05:02:31;;;;;;;32.83;6.15;;;8.00;99.90;;;;;;5041658;28;20028;-81
2023/01/13 05:04:57;;;;;;;28.92;5.40;;;7.30;99.90;;;;;;5039553;28;20459;-81
2023/01/13 05:07:22;;;;;;;29.00;5.43;;;8.00;99.90;;;;;;5048672;28;20068;-80
2023/01/13 05:09:48;;;;;;;42.35;7.45;;;9.30;99.90;;;;;;5051368;28;20384;-81
2023/01/13 05:17:42;;;;;;;30.37;3.87;;;8.00;99.90;;;;;;5060960;28;20044;-81
2023/01/13 05:20:09;;;;;;;28.85;4.97;;;8.10;99.90;;;;;;5058556;28;20299;-81
2023/01/13 05:25:23;;;;;;;22.95;4.13;;;9.50;99.90;;;;;;5060346;28;20064;-80
2023/01/13 05:27:58;;;;;;;23.15;4.18;;;8.10;99.90;;;;;;5030813;28;20040;-81
2023/01/13 05:30:35;;;;;;;31.05;4.18;;;8.20;99.90;;;;;;5042788;28;20040;-81
2023/01/13 05:33:00;;;;;;;27.52;4.97;;;9.50;99.90;;;;;;5060447;28;20086;-81
2023/01/13 05:35:27;;;;;;;22.75;4.40;;;8.20;99.90;;;;;;5064052;28;20075;-81
2023/01/13 05:37:54;;;;;;;24.73;4.03;;;9.10;99.90;;;;;;5040617;28;20040;-80
2023/01/13 05:43:20;;;;;;;;;;;8.20;99.90;;;;;;5057786;28;20048;-81
2023/01/13 05:45:47;;;;;;;29.27;3.88;;;8.20;99.90;;;;;;5057845;28;19928;-81
2023/01/13 05:48:13;;;;;;;27.33;4.40;;;8.30;99.90;;;;;;5039426;28;20044;-81
2023/01/13 05:50:40;;;;;;;24.52;4.57;;;8.20;99.90;;;;;;5048542;28;20559;-81
2023/01/13 05:53:06;;;;;;;30.60;5.80;;;8.30;99.90;;;;;;5034709;28;20132;-81
2023/01/13 05:55:31;;;;;;;26.42;4.63;;;8.30;99.90;;;;;;5051167;28;20039;-81
2023/01/13 05:57:57;;;;;;;29.50;5.60;;;9.40;99.90;;;;;;5049797;28;20044;-81
2023/01/13 06:00:23;;;;;;;17.63;3.67;;;8.30;99.90;;;;;;5033443;28;20041;-80
2023/01/13 06:02:49;;;;;;;22.80;3.75;;;8.30;99.90;;;;;;5032977;28;20041;-81
2023/01/13 06:05:18;;;;;;;35.20;5.47;;;8.40;99.90;;;;;;5044023;28;20090;-81
2023/01/13 06:07:43;;;;;;;26.70;5.50;;;8.60;99.90;;;;;;5064061;28;20045;-81
2023/01/13 06:10:09;;;;;;;29.42;5.45;;;8.60;99.90;;;;;;5060911;28;20059;-81
2023/01/13 06:12:36;;;;;;;27.58;5.65;;;8.30;99.90;;;;;;5059397;28;20052;-81
2023/01/13 06:15:01;;;;;;;23.67;4.35;;;9.00;99.90;;;;;;5062719;28;20319;-81
2023/01/13 06:17:27;;;;;;;29.90;5.45;;;8.20;99.90;;;;;;5058005;28;20041;-81
2023/01/13 06:19:53;;;;;;;27.52;5.18;;;8.20;99.90;;;;;;5066143;28;20032;-82
2023/01/13 06:22:26;;;;;;;29.98;4.85;;;8.20;99.90;;;;;;5064530;28;20063;-82
2023/01/13 06:24:53;;;;;;;19.10;3.42;;;8.30;99.90;;;;;;5044039;28;20127;-81
2023/01/13 06:27:20;;;;;;;32.75;6.07;;;8.20;99.90;;;;;;5046321;28;20605;-81
2023/01/13 06:29:49;;;;;;;27.27;4.80;;;8.30;99.90;;;;;;5063119;28;20128;-82
2023/01/13 06:32:24;;;;;;;19.27;3.78;;;8.30;99.90;;;;;;5037355;28;20519;-81
2023/01/13 06:35:02;;;;;;;25.50;5.15;;;8.30;99.90;;;;;;5045988;28;22072;-82
2023/01/13 06:37:29;;;;;;;22.30;4.53;;;8.30;99.90;;;;;;5032095;28;20571;-81
2023/01/13 06:39:58;;;;;;;25.10;4.22;;;8.30;99.90;;;;;;5064991;28;20166;-82
2023/01/13 06:45:24;;;;;;;29.48;4.65;;;8.10;99.90;;;;;;5040952;28;20075;-81
2023/01/13 06:47:53;;;;;;;24.92;3.60;;;8.00;99.90;;;;;;5065334;28;20491;-81
2023/01/13 06:50:19;;;;;;;26.45;5.15;;;7.90;99.90;;;;;;5058952;28;20488;-82
2023/01/13 06:52:51;;;;;;;27.20;4.95;;;7.80;99.90;;;;;;5027610;28;20046;-81
2023/01/13 06:55:16;;;;;;;20.35;4.45;;;7.90;99.90;;;;;;5049025;28;20434;-82
2023/01/13 06:57:51;;;;;;;26.02;4.47;;;9.20;99.90;;;;;;5047436;28;20063;-81
2023/01/13 07:00:17;;;;;;;23.67;3.22;;;7.80;99.90;;;;;;5046141;28;20041;-82
2023/01/13 07:02:43;;;;;;;29.23;4.50;;;7.70;99.90;;;;;;5039684;28;20033;-81
2023/01/13 07:05:38;;;;;;;25.55;3.72;;;7.70;99.90;;;;;;5039871;28;20108;-81
2023/01/13 07:08:04;;;;;;;23.92;3.83;;;7.70;99.90;;;;;;5037449;28;20041;-81
2023/01/13 07:10:33;;;;;;;27.95;4.13;;;7.70;99.90;;;;;;5040628;28;20053;-82
2023/01/13 07:15:59;;;;;;;19.70;3.40;;;9.50;99.90;;;;;;5041916;28;20141;-81
2023/01/13 07:18:30;;;;;;;25.40;4.03;;;7.40;99.90;;;;;;5041993;28;20044;-81
2023/01/13 07:21:08;;;;;;;30.25;4.53;;;7.40;99.90;;;;;;5024426;28;20114;-81
2023/01/13 07:23:37;;;;;;;23.05;3.20;;;8.30;99.90;;;;;;5008358;28;21978;-82
2023/01/13 07:26:04;;;;;;;27.42;4.75;;;8.40;99.90;;;;;;5041035;28;20041;-82
2023/01/13 07:28:31;;;;;;;22.75;4.57;;;7.20;99.90;;;;;;5038442;28;20045;-81
2023/01/13 07:30:57;;;;;;;23.15;4.53;;;7.20;99.90;;;;;;5054493;28;20083;-82
2023/01/13 07:33:23;;;;;;;25.65;4.57;;;7.20;99.90;;;;;;5037651;28;20432;-82
2023/01/13 07:36:03;;;;;;;29.30;3.88;;;7.20;99.90;;;;;;5039402;28;20067;-82
2023/01/13 07:38:30;;;;;;;20.95;3.70;;;7.20;99.90;;;;;;5056524;28;20059;-81
2023/01/13 07:40:55;;;;;;;30.98;4.38;;;7.20;99.90;;;;;;5046647;28;20041;-81
2023/01/13 07:43:30;;;;;;;28.65;4.25;;;7.20;99.90;;;;;;5047953;28;20442;-81
2023/01/13 07:45:57;;;;;;;29.52;4.40;;;7.20;99.90;;;;;;5046070;28;20604;-81
2023/01/13 07:48:23;;;;;;;20.80;3.85;;;7.70;99.90;;;;;;5054772;28;20072;-82
2023/01/13 07:50:49;;;;;;;24.88;4.20;;;7.10;99.90;;;;;;5043129;28;20036;-81
2023/01/13 07:53:15;;;;;;;24.95;4.50;;;7.10;99.90;;;;;;5063476;28;20083;-81
2023/01/13 07:55:42;;;;;;;29.08;5.28;;;7.10;99.90;;;;;;5046675;28;20090;-81
2023/01/13 07:58:08;;;;;;;28.80;5.32;;;7.10;99.90;;;;;;5052686;28;20086;-81
2023/01/13 08:00:34;;;;;;;25.73;4.43;;;7.10;99.90;;;;;;5068512;28;20035;-81
2023/01/13 08:03:00;;;;;;;32.92;4.55;;;7.10;99.90;;;;;;5049821;28;20041;-81
2023/01/13 08:05:25;;;;;;;23.00;4.15;;;7.10;99.90;;;;;;5066879;28;20044;-82
2023/01/13 08:07:51;;;;;;;25.60;4.50;;;7.10;99.90;;;;;;5045015;28;20082;-81
2023/01/13 08:10:17;;;;;;;31.23;4.82;;;7.30;99.90;;;;;;5044135;28;20037;-81
2023/01/13 08:15:28;;;;;;;32.95;5.38;;;7.20;99.90;;;;;;5050340;28;20450;-81
2023/01/13 08:17:54;;;;;;;22.02;3.83;;;8.10;99.90;;;;;;5051433;28;20051;-81
2023/01/13 08:20:20;;;;;;;21.30;4.20;;;7.30;99.90;;;;;;5044697;28;20123;-81
2023/01/13 08:22:46;;;;;;;21.33;3.80;;;7.60;99.90;;;;;;5053630;28;20124;-80
2023/01/13 08:25:12;;;;;;;33.45;4.93;;;7.30;99.90;;;;;;5050786;28;20104;-82
2023/01/13 08:27:38;;;;;;;24.00;4.63;;;7.40;99.90;;;;;;4698465;28;10000255;-84
2023/01/13 08:30:04;;;;;;;27.52;5.30;;;7.70;99.90;;;;;;5058491;28;20052;-81
2023/01/13 08:32:30;;;;;;;26.10;4.82;;;7.90;99.90;;;;;;5061029;28;20040;-82
2023/01/13 08:34:55;;;;;;;21.35;4.05;;;7.50;99.90;;;;;;5062541;28;20049;-81
2023/01/13 08:37:21;;;;;;;27.50;4.72;;;7.50;99.90;;;;;;5047747;28;20082;-81
2023/01/13 08:39:48;;;;;;;23.20;4.20;;;8.90;99.90;;;;;;5063207;28;20052;-81
2023/01/13 08:42:14;;;;;;;26.13;5.05;;;7.50;99.90;;;;;;5066229;28;20044;-81
2023/01/13 08:44:43;;;;;;;24.88;4.20;;;7.50;99.90;;;;;;5066967;28;20040;-81
2023/01/13 08:47:08;;;;;;;23.80;3.97;;;7.50;99.90;;;;;;5047942;28;20047;-81
2023/01/13 08:49:34;;;;;;;21.75;3.97;;;7.50;99.90;;;;;;5067045;28;20062;-81
2023/01/13 08:51:59;;;;;;;29.33;5.80;;;7.90;99.90;;;;;;5068929;28;20079;-81
2023/01/13 08:54:25;;;;;;;26.60;4.95;;;7.90;99.90;;;;;;5050552;28;20080;-81
2023/01/13 08:56:51;;;;;;;38.47;5.90;;;8.10;99.90;;;;;;5048247;28;20048;-80
2023/01/13 08:59:18;;;;;;;28.98;4.60;;;9.10;99.90;;;;;;5040395;28;20047;-80
2023/01/13 09:01:45;;;;;;;35.35;5.18;;;7.60;99.90;;;;;;5066579;28;20039;-80
2023/01/13 09:04:16;;;;;;;31.05;5.28;;;7.60;99.90;;;;;;5066541;28;20052;-80
2023/01/13 09:06:42;;;;;;;31.92;5.28;;;9.30;99.90;;;;;;5066806;28;20040;-78
2023/01/13 09:09:08;;;;;;;28.00;5.22;;;7.80;99.90;;;;;;5046654;28;20113;-79
2023/01/13 09:14:24;;;;;;;34.67;5.90;;;9.10;99.90;;;;;;5065588;28;20539;-81
2023/01/13 09:16:50;;;;;;;19.98;3.22;;;7.50;99.90;;;;;;5065831;28;20040;-80
2023/01/13 09:19:16;;;;;;;24.70;4.10;;;7.80;99.90;;;;;;5066045;28;20048;-81
2023/01/13 09:21:41;;;;;;;13.57;2.50;;;7.40;99.90;;;;;;5054926;28;20033;-82
2023/01/13 09:24:07;;;;;;;21.58;2.75;;;8.80;99.90;;;;;;5048387;28;20040;-82
2023/01/13 09:26:33;;;;;;;18.27;2.75;;;7.30;99.90;;;;;;5049229;28;20032;-82
2023/01/13 09:29:02;;;;;;;16.05;3.58;;;8.80;99.90;;;;;;5049747;28;20051;-83
2023/01/13 09:31:28;;;;;;;27.77;4.60;;;8.50;99.90;;;;;;5038035;28;20569;-84
2023/01/13 09:36:38;;;;;;;28.00;4.80;;;8.90;99.90;;;;;;5047119;28;20098;-83
2023/01/13 09:39:04;;;;;;;20.13;3.53;;;7.20;99.90;;;;;;5052265;28;20056;-83
2023/01/13 09:44:44;;;;;;;32.40;4.68;;;7.20;99.90;;;;;;5059978;28;21755;-82
2023/01/13 09:47:31;;;;;;;35.72;5.05;;;7.10;99.90;;;;;;5045172;28;20468;-82
2023/01/13 09:50:13;;;;;;;39.15;5.00;;;7.20;99.90;;;;;;5045414;28;20131;-81
2023/01/13 09:52:41;;;;;;;23.70;4.18;;;7.20;99.90;;;;;;5047205;28;20068;-82
2023/01/13 09:55:17;;;;;;;28.88;4.03;;;8.30;99.90;;;;;;5034666;28;20044;-81
2023/01/13 09:57:42;;;;;;;33.53;5.82;;;8.30;99.90;;;;;;5064704;28;20194;-82
2023/01/13 10:00:23;;;;;;;28.75;4.60;;;7.20;99.90;;;;;;5066115;28;20707;-81
2023/01/13 10:03:06;;;;;;;21.98;4.30;;;7.30;99.90;;;;;;5041309;28;20032;-82
2023/01/13 10:05:48;;;;;;;18.23;2.38;;;7.20;99.90;;;;;;5053490;28;20864;-80
2023/01/13 10:08:36;;;;;;;20.52;4.00;;;7.20;99.90;;;;;;5035813;28;20036;-80
2023/01/13 10:14:01;;;;;;;25.80;3.45;;;7.20;99.90;;;;;;5008292;28;20041;-80
2023/01/13 10:16:49;;;;;;;20.50;2.90;;;7.50;99.90;;;;;;5053382;28;20040;-80
2023/01/13 10:19:30;;;;;;;28.58;3.78;;;7.20;99.90;;;;;;5047285;28;20496;-82
2023/01/13 10:22:07;;;;;;;17.52;3.40;;;8.30;99.90;;;;;;5039048;28;20550;-83
2023/01/13 10:25:01;;;;;;;26.42;3.75;;;7.20;99.90;;;;;;5043476;28;20044;-82
2023/01/13 10:27:36;;;;;;;28.10;4.70;;;8.90;99.90;;;;;;5052442;28;20049;-82
2023/01/13 10:30:22;;;;;;;24.88;3.92;;;7.20;99.90;;;;;;5042015;28;20044;-82
2023/01/13 10:33:12;;;;;;;23.70;4.18;;;7.20;99.90;;;;;;5037143;28;20043;-81
2023/01/13 10:35:58;;;;;;;19.70;3.00;;;7.30;99.90;;;;;;5070150;28;20040;-81
2023/01/13 10:38:45;;;;;;;23.80;4.82;;;7.30;99.90;;;;;;5047507;28;20097;-85
2023/01/13 10:41:13;;;;;;;22.40;2.80;;;7.50;99.90;;;;;;5051530;28;20644;-81
2023/01/13 10:43:57;;;;;;;22.67;3.42;;;8.90;99.90;;;;;;5050158;28;20037;-82
2023/01/13 10:46:26;;;;;;;22.00;2.93;;;7.30;99.90;;;;;;5051722;28;20123;-82
2023/01/13 10:49:17;;;;;;;25.58;4.03;;;7.30;99.90;;;;;;5053621;28;20048;-81
2023/01/13 10:51:46;;;;;;;19.45;3.70;;;7.30;99.90;;;;;;5043933;28;20037;-79
2023/01/13 10:54:32;;;;;;;17.38;3.13;;;9.00;99.90;;;;;;5033353;28;20046;-81
2023/01/13 10:57:23;;;;;;;24.60;3.20;;;8.50;99.90;;;;;;4698849;28;10000062;-79
2023/01/13 10:59:55;;;;;;;17.80;4.03;;;7.40;99.90;;;;;;5045563;28;20045;-81
2023/01/13 11:02:37;;;;;;;21.83;4.15;;;8.70;99.90;;;;;;5040060;28;20040;-79
2023/01/13 11:05:23;;;;;;;25.42;4.25;;;6.90;99.90;;;;;;5058232;28;20040;-80
2023/01/13 11:07:56;;;;;;;18.42;3.63;;;7.40;99.90;;;;;;5047082;28;20037;-80
2023/01/13 11:10:32;;;;;;;19.88;2.88;;;7.40;99.90;;;;;;5036220;28;20506;-80
2023/01/13 11:13:07;;;;;;;23.85;3.53;;;8.70;99.90;;;;;;5068042;28;20130;-81
2023/01/13 11:16:10;;;;;;;17.25;3.35;;;8.70;99.90;;;;;;5053525;28;20132;-81
2023/01/13 11:19:10;;;;;;;15.57;2.95;;;7.50;99.90;;;;;;5036710;28;20049;-80
2023/01/13 11:21:45;;;;;;;17.38;4.03;;;7.60;99.90;;;;;;5058054;28;20527;-80
2023/01/13 11:24:22;;;;;;;22.83;3.40;;;7.60;99.90;;;;;;5048162;28;20067;-81
2023/01/13 11:27:03;;;;;;;21.40;3.72;;;8.50;99.90;;;;;;5056223;28;20041;-81
2023/01/13 11:30:02;;;;;;;18.52;3.05;;;7.60;99.90;;;;;;5050465;28;20781;-82
2023/01/13 11:32:34;;;;;;;21.13;2.97;;;7.60;99.90;;;;;;5065197;28;20042;-79
2023/01/13 11:35:03;;;;;;;20.02;3.53;;;7.70;99.90;;;;;;5059419;28;20056;-81
2023/01/13 11:37:36;;;;;;;18.75;3.00;;;7.80;99.90;;;;;;5049368;28;20045;-80
2023/01/13 11:40:17;;;;;;;23.08;3.55;;;7.80;99.90;;;;;;5025988;28;20044;-83
2023/01/13 11:43:25;;;;;;;13.52;2.65;;;7.80;99.90;;;;;;5034839;28;20044;-81
2023/01/13 11:46:00;;;;;;;22.02;3.80;;;7.80;99.90;;;;;;5012748;28;20132;-82
2023/01/13 11:48:30;;;;;;;16.33;2.47;;;8.00;99.90;;;;;;5016868;28;20036;-82
2023/01/13 11:51:09;;;;;;;16.70;3.00;;;9.40;99.90;;;;;;5052184;28;20055;-82
2023/01/13 11:54:23;;;;;;;20.98;3.25;;;8.00;99.90;;;;;;5035652;28;20105;-82
2023/01/13 11:57:06;;;;;;;13.95;2.00;;;8.20;99.90;;;;;;5033983;28;20121;-81
2023/01/13 12:00:03;;;;;;;13.32;2.25;;;8.20;99.90;;;;;;5052010;28;20079;-82
2023/01/13 12:02:47;;;;;;;13.20;3.08;;;8.10;99.90;;;;;;5035003;28;20547;-82
2023/01/13 12:05:28;;;;;;;15.50;2.20;;;8.00;99.90;;;;;;5034529;28;20046;-80
2023/01/13 12:08:07;;;;;;;15.50;2.50;;;8.00;99.90;;;;;;5044197;28;20067;-81
2023/01/13 12:11:05;;;;;;;17.30;2.58;;;8.30;99.90;;;;;;5051317;28;20102;-82
2023/01/13 12:14:01;;;;;;;16.80;3.47;;;8.00;99.90;;;;;;5068543;28;20036;-80
2023/01/13 12:16:29;;;;;;;19.23;2.95;;;8.00;99.90;;;;;;5065525;28;20455;-81
2023/01/13 12:19:23;;;;;;;19.23;2.60;;;9.00;99.90;;;;;;5049908;28;20504;-79
2023/01/13 12:22:17;;;;;;;24.08;3.42;;;8.00;99.90;;;;;;5051897;28;20128;-80
2023/01/13 12:25:30;;;;;;;14.27;2.20;;;8.10;99.90;;;;;;5034821;28;20052;-84
2023/01/13 12:28:19;;;;;;;7.82;1.67;;;8.20;99.90;;;;;;5062366;28;20129;-81
2023/01/13 12:30:50;;;;;;;12.80;1.98;;;8.30;99.90;;;;;;5051698;28;20396;-80
2023/01/13 12:33:40;;;;;;;15.18;2.25;;;9.80;99.90;;;;;;5034311;28;20041;-82
2023/01/13 12:36:26;;;;;;;12.55;2.47;;;8.40;99.90;;;;;;5046685;28;20037;-81
2023/01/13 12:39:11;;;;;;;13.98;2.03;;;8.50;99.90;;;;;;5051033;28;20044;-82
2023/01/13 12:41:37;;;;;;;;;;;9.20;99.90;;;;;;5070139;28;20052;-81
2023/01/13 12:44:19;;;;;;;12.85;2.47;;;8.50;99.90;;;;;;5052170;28;20006;-82
2023/01/13 12:46:56;;;;;;;16.45;2.50;;;8.40;99.90;;;;;;5050080;28;20052;-81
2023/01/13 12:49:26;;;;;;;15.32;2.15;;;8.60;99.90;;;;;;5050073;28;20080;-84
2023/01/13 12:51:51;;;;;;;14.48;2.67;;;9.70;99.90;;;;;;5034755;28;20551;-80
2023/01/13 12:54:29;;;;;;;13.23;2.22;;;8.70;99.90;;;;;;5068186;28;20131;-80
2023/01/13 12:56:55;;;;;;;11.50;1.95;;;10.00;99.90;;;;;;5050483;28;20488;-81
2023/01/13 12:59:21;;;;;;;11.43;2.55;;;8.50;99.90;;;;;;5068691;28;20052;-80
2023/01/13 13:01:48;;;;;;;16.40;2.95;;;8.50;99.90;;;;;;5068462;28;20138;-80
2023/01/13 13:04:48;;;;;;;11.65;2.65;;;8.50;99.90;;;;;;5034440;28;20101;-80
2023/01/13 13:07:22;;;;;;;22.27;2.60;;;8.50;99.90;;;;;;5047151;28;20051;-80
2023/01/13 13:09:56;;;;;;;12.70;2.95;;;8.50;99.90;;;;;;5050099;28;20097;-80
2023/01/13 13:15:39;;;;;;;12.25;2.22;;;8.50;99.90;;;;;;5047006;28;20130;-80
2023/01/13 13:18:17;;;;;;;10.10;1.60;;;8.40;99.90;;;;;;5051152;28;20055;-81
2023/01/13 13:21:01;;;;;;;15.23;2.00;;;8.40;99.90;;;;;;5068989;28;20044;-81
2023/01/13 13:23:36;;;;;;;13.33;2.50;;;8.40;99.90;;;;;;5068390;28;20040;-80
2023/01/13 13:26:13;;;;;;;;;;;9.60;99.90;;;;;;5060652;28;20336;-80
2023/01/13 13:28:47;;;;;;;13.05;1.65;;;8.60;99.90;;;;;;5033145;28;19974;-80
2023/01/13 13:31:22;;;;;;;11.75;1.88;;;8.50;99.90;;;;;;5051271;28;20066;-82
2023/01/13 13:34:09;;;;;;;15.10;2.20;;;8.60;99.90;;;;;;5051167;28;20504;-80
2023/01/13 13:37:14;;;;;;;12.30;1.67;;;8.60;99.90;;;;;;5032712;28;20048;-81
2023/01/13 13:48:21;;;;;;;16.85;2.00;;;8.70;99.90;;;;;;5056616;28;20572;-82
2023/01/13 13:50:57;;;;;;;12.05;1.83;;;7.70;99.90;;;;;;5055851;28;20041;-81
2023/01/13 13:53:28;;;;;;;12.48;2.22;;;8.90;99.90;;;;;;5061790;28;20070;-79
2023/01/13 13:55:58;;;;;;;18.05;1.85;;;10.10;99.90;;;;;;5049789;28;20100;-79
2023/01/13 13:58:25;;;;;;;12.95;2.00;;;8.70;99.90;;;;;;5036335;28;20071;-79
2023/01/13 14:00:53;;;;;;;11.55;1.92;;;8.70;99.90;;;;;;5054969;28;20043;-78
2023/01/13 14:03:23;;;;;;;14.27;2.30;;;10.20;99.90;;;;;;5065554;28;20055;-79
2023/01/13 14:05:59;;;;;;;14.85;1.83;;;8.70;99.90;;;;;;5048961;28;20052;-80
2023/01/13 14:08:28;;;;;;;13.45;2.25;;;8.70;99.90;;;;;;5047750;28;20395;-81